BWA217 SYEC-TBPB
Flight info
| Callsign | BWA217 |
|---|---|
| Flight time | 1h 27m |
| Altitude | 16000 |
| Route | EC200 DCT EC300 DCT 0743N05818W DCT 0926N05848W/N0278F150 1118N05909W DCT ERROL DCT 1217N05920W/N0276F160 1220N05921W 1222N05922W 1231N05930W 1233N05931W 1236N05932W/N0274F170 1238N05932W/N0276F160 1240N05933W/N0274F170 DCT 1248N05935W 1250N05936W 1253N05936W 1302N05936W 1303N05936W DCT 1303N05935W |
| Aircraft | AT76/M-SDFGIRY/S |
Departure
| Time | 2026-04-21 18:27 |
|---|---|
| Airport | Eugene F. Correia International Airport (SYEC) |
Arrival
| Time | 2026-04-21 19:54 |
|---|---|
| Airport | Grantley Adams International Airport (TBPB) |
| Time | Latitude | Longitude | Altitude | Speed | Heading |
|---|---|---|---|---|---|
| 2026-04-21 18:15 | 6.80713 | -58.10381 | 8 ft | 0 kts | 215° |
| 2026-04-21 18:19 | 6.80710 | -58.10383 | 8 ft | 0 kts | 214° |
| 2026-04-21 18:19 | 6.80705 | -58.10384 | 8 ft | 2 kts | 188° |
| 2026-04-21 18:19 | 6.80701 | -58.10383 | 8 ft | 0 kts | 170° |
| 2026-04-21 18:22 | 6.80692 | -58.10438 | 55 ft | 0 kts | 170° |
| 2026-04-21 18:23 | 6.80688 | -58.10441 | 7 ft | 1 kts | 213° |
| 2026-04-21 18:23 | 6.80701 | -58.10461 | 7 ft | 11 kts | 311° |
| 2026-04-21 18:23 | 6.80758 | -58.10553 | 6 ft | 12 kts | 233° |
| 2026-04-21 18:24 | 6.80709 | -58.10606 | 6 ft | 18 kts | 226° |
| 2026-04-21 18:24 | 6.80618 | -58.10725 | 6 ft | 24 kts | 232° |
| 2026-04-21 18:24 | 6.80556 | -58.10806 | 8 ft | 0 kts | 231° |
| 2026-04-21 18:24 | 6.80540 | -58.10825 | 9 ft | 11 kts | 230° |
| 2026-04-21 18:25 | 6.80463 | -58.10925 | 9 ft | 23 kts | 235° |
| 2026-04-21 18:25 | 6.80361 | -58.11061 | 11 ft | 25 kts | 232° |
| 2026-04-21 18:25 | 6.80260 | -58.11174 | 10 ft | 16 kts | 205° |
| 2026-04-21 18:25 | 6.80233 | -58.11200 | 9 ft | 1 kts | 311° |
| 2026-04-21 18:26 | 6.80251 | -58.11197 | 9 ft | 8 kts | 20° |
| 2026-04-21 18:26 | 6.80336 | -58.11095 | 11 ft | 37 kts | 52° |
| 2026-04-21 18:26 | 6.80629 | -58.10711 | 7 ft | 100 kts | 52° |
| 2026-04-21 18:26 | 6.81113 | -58.10066 | 313 ft | 126 kts | 55° |
| 2026-04-21 18:27 | 6.81659 | -58.09322 | 897 ft | 132 kts | 52° |
| 2026-04-21 18:27 | 6.82226 | -58.08591 | 1544 ft | 137 kts | 51° |
| 2026-04-21 18:27 | 6.82832 | -58.07820 | 2108 ft | 145 kts | 51° |
| 2026-04-21 18:27 | 6.83469 | -58.07004 | 2693 ft | 152 kts | 52° |
| 2026-04-21 18:28 | 6.84130 | -58.06147 | 3239 ft | 157 kts | 52° |
| 2026-04-21 18:28 | 6.84806 | -58.05258 | 3776 ft | 161 kts | 52° |
| 2026-04-21 18:28 | 6.85614 | -58.04463 | 4222 ft | 170 kts | 22° |
| 2026-04-21 18:28 | 6.86812 | -58.04460 | 4706 ft | 180 kts | 347° |
| 2026-04-21 18:29 | 6.88057 | -58.04826 | 5136 ft | 192 kts | 343° |
| 2026-04-21 18:29 | 6.89366 | -58.05262 | 5478 ft | 206 kts | 342° |
| 2026-04-21 18:29 | 6.90753 | -58.05738 | 5822 ft | 217 kts | 342° |
| 2026-04-21 18:29 | 6.92220 | -58.06227 | 6170 ft | 225 kts | 342° |
| 2026-04-21 18:30 | 6.93718 | -58.06692 | 6505 ft | 231 kts | 343° |
| 2026-04-21 18:30 | 6.95283 | -58.07166 | 6826 ft | 236 kts | 343° |
| 2026-04-21 18:30 | 6.96886 | -58.07645 | 7155 ft | 240 kts | 343° |
| 2026-04-21 18:30 | 6.98484 | -58.08125 | 7484 ft | 243 kts | 343° |
| 2026-04-21 18:31 | 7.00129 | -58.08617 | 7822 ft | 245 kts | 343° |
| 2026-04-21 18:31 | 7.01763 | -58.09102 | 8157 ft | 247 kts | 343° |
| 2026-04-21 18:31 | 7.03421 | -58.09597 | 8498 ft | 249 kts | 343° |
| 2026-04-21 18:31 | 7.05095 | -58.10098 | 8844 ft | 250 kts | 343° |
| 2026-04-21 18:32 | 7.06756 | -58.10595 | 9190 ft | 251 kts | 343° |
| 2026-04-21 18:32 | 7.08440 | -58.11097 | 9540 ft | 252 kts | 343° |
| 2026-04-21 18:32 | 7.10113 | -58.11593 | 9887 ft | 253 kts | 343° |
| 2026-04-21 18:32 | 7.11828 | -58.12096 | 10208 ft | 254 kts | 343° |
| 2026-04-21 18:33 | 7.13519 | -58.12590 | 10530 ft | 255 kts | 343° |
| 2026-04-21 18:33 | 7.15211 | -58.13091 | 10857 ft | 255 kts | 343° |
| 2026-04-21 18:33 | 7.16924 | -58.13603 | 11166 ft | 256 kts | 342° |
| 2026-04-21 18:33 | 7.18650 | -58.14123 | 11404 ft | 260 kts | 342° |
| 2026-04-21 18:34 | 7.20384 | -58.14644 | 11643 ft | 263 kts | 342° |
| 2026-04-21 18:34 | 7.22143 | -58.15173 | 11880 ft | 265 kts | 342° |
| 2026-04-21 18:34 | 7.23924 | -58.15704 | 12123 ft | 266 kts | 342° |
| 2026-04-21 18:34 | 7.25683 | -58.16231 | 12366 ft | 267 kts | 342° |
| 2026-04-21 18:35 | 7.26876 | -58.16588 | 12529 ft | 268 kts | 342° |
| 2026-04-21 18:35 | 7.29276 | -58.17308 | 12862 ft | 268 kts | 342° |
| 2026-04-21 18:35 | 7.31074 | -58.17851 | 13114 ft | 268 kts | 342° |
| 2026-04-21 18:35 | 7.32854 | -58.18386 | 13369 ft | 268 kts | 342° |
| 2026-04-21 18:36 | 7.34634 | -58.18918 | 13621 ft | 268 kts | 341° |
| 2026-04-21 18:36 | 7.36415 | -58.19453 | 13854 ft | 267 kts | 341° |
| 2026-04-21 18:36 | 7.38211 | -58.19991 | 14084 ft | 267 kts | 341° |
| 2026-04-21 18:36 | 7.39980 | -58.20522 | 14305 ft | 266 kts | 341° |
| 2026-04-21 18:37 | 7.41753 | -58.21054 | 14533 ft | 266 kts | 341° |
| 2026-04-21 18:37 | 7.43525 | -58.21585 | 14762 ft | 265 kts | 341° |
| 2026-04-21 18:37 | 7.45283 | -58.22110 | 14992 ft | 265 kts | 342° |
| 2026-04-21 18:37 | 7.47066 | -58.22642 | 15231 ft | 264 kts | 341° |
| 2026-04-21 18:38 | 7.48816 | -58.23166 | 15461 ft | 263 kts | 341° |
| 2026-04-21 18:38 | 7.50576 | -58.23693 | 15698 ft | 263 kts | 341° |
| 2026-04-21 18:38 | 7.52333 | -58.24220 | 15808 ft | 267 kts | 341° |
| 2026-04-21 18:38 | 7.54139 | -58.24761 | 15862 ft | 273 kts | 341° |
| 2026-04-21 18:39 | 7.55975 | -58.25312 | 15890 ft | 278 kts | 341° |
| 2026-04-21 18:39 | 7.57840 | -58.25882 | 15904 ft | 283 kts | 341° |
| 2026-04-21 18:39 | 7.59750 | -58.26459 | 15909 ft | 286 kts | 341° |
| 2026-04-21 18:39 | 7.61666 | -58.27036 | 15915 ft | 289 kts | 341° |
| 2026-04-21 18:40 | 7.63582 | -58.27608 | 15914 ft | 291 kts | 342° |
| 2026-04-21 18:40 | 7.65531 | -58.28195 | 15915 ft | 293 kts | 341° |
| 2026-04-21 18:40 | 7.66843 | -58.28587 | 15915 ft | 294 kts | 342° |
| 2026-04-21 18:40 | 7.69467 | -58.29377 | 15914 ft | 295 kts | 341° |
| 2026-04-21 18:41 | 7.71430 | -58.29966 | 15912 ft | 296 kts | 341° |
| 2026-04-21 18:41 | 7.73416 | -58.30552 | 15914 ft | 297 kts | 342° |
| 2026-04-21 18:41 | 7.75394 | -58.31105 | 15916 ft | 297 kts | 343° |
| 2026-04-21 18:41 | 7.77396 | -58.31668 | 15915 ft | 298 kts | 342° |
| 2026-04-21 18:42 | 7.79377 | -58.32233 | 15917 ft | 298 kts | 342° |
| 2026-04-21 18:42 | 7.81364 | -58.32814 | 15915 ft | 298 kts | 342° |
| 2026-04-21 18:42 | 7.83362 | -58.33401 | 15922 ft | 299 kts | 342° |
| 2026-04-21 18:42 | 7.85365 | -58.33981 | 15918 ft | 299 kts | 342° |
| 2026-04-21 18:43 | 7.87360 | -58.34556 | 15917 ft | 299 kts | 342° |
| 2026-04-21 18:43 | 7.89348 | -58.35133 | 15915 ft | 299 kts | 342° |
| 2026-04-21 18:43 | 7.91350 | -58.35717 | 15913 ft | 299 kts | 342° |
| 2026-04-21 18:43 | 7.93353 | -58.36301 | 15916 ft | 299 kts | 342° |
| 2026-04-21 18:44 | 7.95345 | -58.36876 | 15916 ft | 299 kts | 342° |
| 2026-04-21 18:44 | 7.97353 | -58.37456 | 15916 ft | 299 kts | 342° |
| 2026-04-21 18:44 | 7.99374 | -58.38045 | 15919 ft | 299 kts | 342° |
| 2026-04-21 18:44 | 8.01352 | -58.38622 | 15915 ft | 299 kts | 342° |
| 2026-04-21 18:45 | 8.03372 | -58.39209 | 15917 ft | 299 kts | 342° |
| 2026-04-21 18:45 | 8.05352 | -58.39784 | 15918 ft | 299 kts | 342° |
| 2026-04-21 18:45 | 8.07350 | -58.40364 | 15914 ft | 299 kts | 342° |
| 2026-04-21 18:45 | 8.09363 | -58.40948 | 15914 ft | 299 kts | 342° |
| 2026-04-21 18:46 | 8.11352 | -58.41526 | 15914 ft | 299 kts | 342° |
| 2026-04-21 18:46 | 8.13366 | -58.42111 | 15915 ft | 299 kts | 342° |
| 2026-04-21 18:46 | 8.15344 | -58.42687 | 15917 ft | 299 kts | 342° |
| 2026-04-21 18:46 | 8.17338 | -58.43268 | 15916 ft | 299 kts | 342° |
| 2026-04-21 18:47 | 8.19344 | -58.43852 | 15919 ft | 299 kts | 342° |
| 2026-04-21 18:47 | 8.21343 | -58.44433 | 15917 ft | 299 kts | 342° |
| 2026-04-21 18:47 | 8.23342 | -58.45013 | 15916 ft | 299 kts | 342° |
| 2026-04-21 18:47 | 8.25346 | -58.45592 | 15916 ft | 299 kts | 342° |
| 2026-04-21 18:48 | 8.27325 | -58.46165 | 15916 ft | 299 kts | 342° |
| 2026-04-21 18:48 | 8.29334 | -58.46749 | 15914 ft | 299 kts | 342° |
| 2026-04-21 18:48 | 8.31339 | -58.47333 | 15918 ft | 299 kts | 342° |
| 2026-04-21 18:48 | 8.33309 | -58.47907 | 15916 ft | 299 kts | 342° |
| 2026-04-21 18:49 | 8.35321 | -58.48494 | 15918 ft | 298 kts | 342° |
| 2026-04-21 18:49 | 8.37312 | -58.49074 | 15917 ft | 298 kts | 342° |
| 2026-04-21 18:49 | 8.38648 | -58.49463 | 15918 ft | 298 kts | 342° |
| 2026-04-21 18:49 | 8.41288 | -58.50233 | 15916 ft | 298 kts | 342° |
| 2026-04-21 18:50 | 8.43305 | -58.50821 | 15916 ft | 298 kts | 342° |
| 2026-04-21 18:50 | 8.45270 | -58.51391 | 15919 ft | 298 kts | 342° |
| 2026-04-21 18:50 | 8.47283 | -58.51974 | 15920 ft | 298 kts | 342° |
| 2026-04-21 18:50 | 8.49275 | -58.52552 | 15920 ft | 298 kts | 342° |
| 2026-04-21 18:51 | 8.51263 | -58.53131 | 15919 ft | 298 kts | 342° |
| 2026-04-21 18:51 | 8.53260 | -58.53714 | 15919 ft | 298 kts | 342° |
| 2026-04-21 18:51 | 8.55232 | -58.54289 | 15919 ft | 298 kts | 341° |
| 2026-04-21 18:51 | 8.57236 | -58.54872 | 15920 ft | 298 kts | 342° |
| 2026-04-21 18:52 | 8.59220 | -58.55449 | 15919 ft | 298 kts | 342° |
| 2026-04-21 18:52 | 8.61218 | -58.56030 | 15918 ft | 298 kts | 342° |
| 2026-04-21 18:52 | 8.63190 | -58.56603 | 15920 ft | 298 kts | 341° |
| 2026-04-21 18:52 | 8.65211 | -58.57193 | 15919 ft | 298 kts | 342° |
| 2026-04-21 18:53 | 8.67188 | -58.57769 | 15923 ft | 298 kts | 342° |
| 2026-04-21 18:53 | 8.69164 | -58.58345 | 15923 ft | 298 kts | 342° |
| 2026-04-21 18:53 | 8.71177 | -58.58933 | 15918 ft | 298 kts | 342° |
| 2026-04-21 18:53 | 8.73155 | -58.59510 | 15922 ft | 297 kts | 342° |
| 2026-04-21 18:54 | 8.75150 | -58.60090 | 15919 ft | 297 kts | 342° |
| 2026-04-21 18:54 | 8.77137 | -58.60669 | 15920 ft | 297 kts | 342° |
| 2026-04-21 18:54 | 8.79104 | -58.61243 | 15922 ft | 297 kts | 342° |
| 2026-04-21 18:54 | 8.81100 | -58.61827 | 15923 ft | 297 kts | 342° |
| 2026-04-21 18:55 | 8.82442 | -58.62219 | 15920 ft | 297 kts | 342° |
| 2026-04-21 18:55 | 8.85076 | -58.62987 | 15924 ft | 297 kts | 342° |
| 2026-04-21 18:55 | 8.87055 | -58.63564 | 15919 ft | 297 kts | 342° |
| 2026-04-21 18:55 | 8.89032 | -58.64138 | 15920 ft | 297 kts | 342° |
| 2026-04-21 18:56 | 8.91031 | -58.64720 | 15919 ft | 297 kts | 342° |
| 2026-04-21 18:56 | 8.93019 | -58.65301 | 15925 ft | 297 kts | 342° |
| 2026-04-21 18:56 | 8.94980 | -58.65872 | 15922 ft | 297 kts | 342° |
| 2026-04-21 18:56 | 8.96955 | -58.66449 | 15923 ft | 297 kts | 342° |
| 2026-04-21 18:57 | 8.98950 | -58.67033 | 15921 ft | 297 kts | 341° |
| 2026-04-21 18:57 | 9.00935 | -58.67613 | 15923 ft | 297 kts | 342° |
| 2026-04-21 18:57 | 9.02924 | -58.68195 | 15923 ft | 297 kts | 341° |
| 2026-04-21 18:57 | 9.04891 | -58.68769 | 15923 ft | 297 kts | 342° |
| 2026-04-21 18:58 | 9.06879 | -58.69349 | 15925 ft | 297 kts | 342° |
| 2026-04-21 18:58 | 9.08865 | -58.69929 | 15923 ft | 297 kts | 342° |
| 2026-04-21 18:58 | 9.10851 | -58.70510 | 15921 ft | 297 kts | 342° |
| 2026-04-21 18:58 | 9.12828 | -58.71087 | 15922 ft | 297 kts | 342° |
| 2026-04-21 18:59 | 9.14816 | -58.71667 | 15923 ft | 297 kts | 342° |
| 2026-04-21 18:59 | 9.16801 | -58.72246 | 15921 ft | 296 kts | 341° |
| 2026-04-21 18:59 | 9.18789 | -58.72827 | 15921 ft | 296 kts | 341° |
| 2026-04-21 18:59 | 9.20768 | -58.73407 | 15921 ft | 296 kts | 341° |
| 2026-04-21 19:00 | 9.22731 | -58.73981 | 15922 ft | 296 kts | 341° |
| 2026-04-21 19:00 | 9.24723 | -58.74563 | 15922 ft | 296 kts | 342° |
| 2026-04-21 19:00 | 9.26689 | -58.75137 | 15923 ft | 296 kts | 342° |
| 2026-04-21 19:00 | 9.28678 | -58.75718 | 15921 ft | 296 kts | 341° |
| 2026-04-21 19:01 | 9.30654 | -58.76296 | 15922 ft | 296 kts | 342° |
| 2026-04-21 19:01 | 9.32637 | -58.76875 | 15923 ft | 296 kts | 341° |
| 2026-04-21 19:01 | 9.34611 | -58.77452 | 15921 ft | 296 kts | 341° |
| 2026-04-21 19:01 | 9.36587 | -58.78030 | 15924 ft | 296 kts | 341° |
| 2026-04-21 19:02 | 9.38558 | -58.78608 | 15921 ft | 296 kts | 341° |
| 2026-04-21 19:02 | 9.40566 | -58.79196 | 15920 ft | 296 kts | 341° |
| 2026-04-21 19:02 | 9.42522 | -58.79767 | 15921 ft | 296 kts | 341° |
| 2026-04-21 19:02 | 9.44508 | -58.80321 | 15920 ft | 296 kts | 345° |
| 2026-04-21 19:03 | 9.46519 | -58.80698 | 15923 ft | 296 kts | 349° |
| 2026-04-21 19:03 | 9.48568 | -58.81013 | 15919 ft | 296 kts | 349° |
| 2026-04-21 19:03 | 9.50599 | -58.81337 | 15923 ft | 296 kts | 348° |
| 2026-04-21 19:03 | 9.52619 | -58.81706 | 15923 ft | 296 kts | 347° |
| 2026-04-21 19:04 | 9.54658 | -58.82090 | 15924 ft | 296 kts | 347° |
| 2026-04-21 19:04 | 9.56686 | -58.82467 | 15931 ft | 296 kts | 347° |
| 2026-04-21 19:04 | 9.58703 | -58.82843 | 15928 ft | 297 kts | 347° |
| 2026-04-21 19:04 | 9.60716 | -58.83220 | 15927 ft | 297 kts | 347° |
| 2026-04-21 19:05 | 9.62767 | -58.83603 | 15923 ft | 297 kts | 347° |
| 2026-04-21 19:05 | 9.64811 | -58.83980 | 15927 ft | 297 kts | 347° |
| 2026-04-21 19:05 | 9.66835 | -58.84360 | 15924 ft | 297 kts | 347° |
| 2026-04-21 19:05 | 9.68854 | -58.84741 | 15926 ft | 297 kts | 347° |
| 2026-04-21 19:06 | 9.70876 | -58.85115 | 15926 ft | 297 kts | 347° |
| 2026-04-21 19:06 | 9.72922 | -58.85496 | 15925 ft | 297 kts | 347° |
| 2026-04-21 19:06 | 9.74276 | -58.85749 | 15926 ft | 297 kts | 347° |
| 2026-04-21 19:06 | 9.76301 | -58.86131 | 15925 ft | 297 kts | 347° |
| 2026-04-21 19:07 | 9.78337 | -58.86511 | 15922 ft | 297 kts | 347° |
| 2026-04-21 19:07 | 9.80363 | -58.86887 | 15925 ft | 297 kts | 347° |
| 2026-04-21 19:07 | 9.82394 | -58.87269 | 15924 ft | 297 kts | 347° |
| 2026-04-21 19:07 | 9.84437 | -58.87652 | 15925 ft | 297 kts | 347° |
| 2026-04-21 19:08 | 9.86451 | -58.88023 | 15925 ft | 297 kts | 347° |
| 2026-04-21 19:08 | 9.88502 | -58.88407 | 15925 ft | 297 kts | 347° |
| 2026-04-21 19:08 | 9.90520 | -58.88788 | 15927 ft | 296 kts | 347° |
| 2026-04-21 19:08 | 9.92555 | -58.89171 | 15926 ft | 296 kts | 347° |
| 2026-04-21 19:09 | 9.94567 | -58.89546 | 15927 ft | 297 kts | 347° |
| 2026-04-21 19:09 | 9.96600 | -58.89921 | 15927 ft | 297 kts | 347° |
| 2026-04-21 19:09 | 9.98625 | -58.90296 | 15925 ft | 297 kts | 347° |
| 2026-04-21 19:09 | 10.00653 | -58.90676 | 15925 ft | 297 kts | 347° |
| 2026-04-21 19:10 | 10.02673 | -58.91056 | 15925 ft | 297 kts | 347° |
| 2026-04-21 19:10 | 10.04704 | -58.91439 | 15926 ft | 297 kts | 347° |
| 2026-04-21 19:10 | 10.06730 | -58.91821 | 15922 ft | 297 kts | 347° |
| 2026-04-21 19:10 | 10.08772 | -58.92202 | 15922 ft | 297 kts | 347° |
| 2026-04-21 19:11 | 10.10816 | -58.92586 | 15922 ft | 297 kts | 347° |
| 2026-04-21 19:11 | 10.12825 | -58.92960 | 15926 ft | 297 kts | 347° |
| 2026-04-21 19:11 | 10.14878 | -58.93343 | 15927 ft | 297 kts | 347° |
| 2026-04-21 19:11 | 10.16903 | -58.93721 | 15927 ft | 297 kts | 347° |
| 2026-04-21 19:12 | 10.18925 | -58.94101 | 15927 ft | 297 kts | 347° |
| 2026-04-21 19:12 | 10.20951 | -58.94482 | 15927 ft | 297 kts | 347° |
| 2026-04-21 19:12 | 10.22984 | -58.94864 | 15926 ft | 297 kts | 347° |
| 2026-04-21 19:12 | 10.25012 | -58.95244 | 15926 ft | 297 kts | 347° |
| 2026-04-21 19:13 | 10.27043 | -58.95623 | 15929 ft | 296 kts | 347° |
| 2026-04-21 19:13 | 10.29074 | -58.96003 | 15927 ft | 296 kts | 347° |
| 2026-04-21 19:13 | 10.31095 | -58.96383 | 15929 ft | 296 kts | 347° |
| 2026-04-21 19:13 | 10.33132 | -58.96766 | 15928 ft | 296 kts | 347° |
| 2026-04-21 19:14 | 10.35160 | -58.97145 | 15931 ft | 296 kts | 347° |
| 2026-04-21 19:14 | 10.37176 | -58.97522 | 15929 ft | 296 kts | 347° |
| 2026-04-21 19:14 | 10.39213 | -58.97903 | 15926 ft | 296 kts | 347° |
| 2026-04-21 19:14 | 10.41236 | -58.98281 | 15926 ft | 296 kts | 347° |
| 2026-04-21 19:15 | 10.43259 | -58.98659 | 15926 ft | 296 kts | 347° |
| 2026-04-21 19:15 | 10.45283 | -58.99039 | 15929 ft | 296 kts | 347° |
| 2026-04-21 19:15 | 10.47328 | -58.99423 | 15931 ft | 296 kts | 347° |
| 2026-04-21 19:15 | 10.49327 | -58.99797 | 15931 ft | 296 kts | 347° |
| 2026-04-21 19:16 | 10.51354 | -59.00177 | 15932 ft | 296 kts | 347° |
| 2026-04-21 19:16 | 10.53385 | -59.00559 | 15928 ft | 296 kts | 347° |
| 2026-04-21 19:16 | 10.55411 | -59.00940 | 15930 ft | 296 kts | 347° |
| 2026-04-21 19:16 | 10.57454 | -59.01324 | 15931 ft | 296 kts | 347° |
| 2026-04-21 19:17 | 10.61494 | -59.02083 | 15931 ft | 296 kts | 347° |
| 2026-04-21 19:17 | 10.63533 | -59.02466 | 15933 ft | 296 kts | 347° |
| 2026-04-21 19:17 | 10.65564 | -59.02847 | 15933 ft | 296 kts | 347° |
| 2026-04-21 19:18 | 10.67594 | -59.03227 | 15933 ft | 296 kts | 347° |
| 2026-04-21 19:18 | 10.69618 | -59.03606 | 15932 ft | 296 kts | 347° |
| 2026-04-21 19:18 | 10.71625 | -59.03983 | 15934 ft | 296 kts | 347° |
| 2026-04-21 19:18 | 10.73667 | -59.04368 | 15931 ft | 296 kts | 347° |
| 2026-04-21 19:19 | 10.75682 | -59.04748 | 15933 ft | 296 kts | 347° |
| 2026-04-21 19:19 | 10.77715 | -59.05129 | 15931 ft | 297 kts | 347° |
| 2026-04-21 19:19 | 10.79755 | -59.05513 | 15933 ft | 297 kts | 347° |
| 2026-04-21 19:19 | 10.81777 | -59.05895 | 15935 ft | 297 kts | 347° |
| 2026-04-21 19:20 | 10.83801 | -59.06276 | 15933 ft | 297 kts | 347° |
| 2026-04-21 19:20 | 10.85836 | -59.06658 | 15931 ft | 297 kts | 347° |
| 2026-04-21 19:20 | 10.87847 | -59.07035 | 15931 ft | 297 kts | 347° |
| 2026-04-21 19:20 | 10.89906 | -59.07420 | 15931 ft | 297 kts | 347° |
| 2026-04-21 19:21 | 10.91930 | -59.07801 | 15931 ft | 296 kts | 347° |
| 2026-04-21 19:21 | 10.93952 | -59.08183 | 15931 ft | 296 kts | 347° |
| 2026-04-21 19:21 | 10.95967 | -59.08562 | 15934 ft | 296 kts | 347° |
| 2026-04-21 19:21 | 10.98013 | -59.08948 | 15933 ft | 296 kts | 347° |
| 2026-04-21 19:22 | 11.00022 | -59.09327 | 15934 ft | 296 kts | 347° |
| 2026-04-21 19:22 | 11.02046 | -59.09708 | 15934 ft | 296 kts | 347° |
| 2026-04-21 19:22 | 11.04079 | -59.10090 | 15934 ft | 296 kts | 347° |
| 2026-04-21 19:22 | 11.06107 | -59.10471 | 15933 ft | 296 kts | 347° |
| 2026-04-21 19:23 | 11.08128 | -59.10852 | 15932 ft | 296 kts | 347° |
| 2026-04-21 19:23 | 11.10170 | -59.11239 | 15932 ft | 296 kts | 347° |
| 2026-04-21 19:23 | 11.12170 | -59.11617 | 15932 ft | 296 kts | 347° |
| 2026-04-21 19:23 | 11.14226 | -59.12004 | 15934 ft | 296 kts | 347° |
| 2026-04-21 19:24 | 11.16239 | -59.12383 | 15934 ft | 296 kts | 347° |
| 2026-04-21 19:24 | 11.18278 | -59.12767 | 15933 ft | 296 kts | 347° |
| 2026-04-21 19:24 | 11.20298 | -59.13147 | 15935 ft | 296 kts | 347° |
| 2026-04-21 19:24 | 11.22330 | -59.13529 | 15938 ft | 296 kts | 347° |
| 2026-04-21 19:25 | 11.24364 | -59.13914 | 15936 ft | 296 kts | 347° |
| 2026-04-21 19:25 | 11.26366 | -59.14291 | 15936 ft | 296 kts | 347° |
| 2026-04-21 19:25 | 11.28398 | -59.14674 | 15931 ft | 296 kts | 347° |
| 2026-04-21 19:25 | 11.30423 | -59.15057 | 15936 ft | 296 kts | 347° |
| 2026-04-21 19:26 | 11.32448 | -59.15451 | 15936 ft | 296 kts | 347° |
| 2026-04-21 19:26 | 11.34470 | -59.15841 | 15936 ft | 296 kts | 347° |
| 2026-04-21 19:26 | 11.36494 | -59.16231 | 15935 ft | 296 kts | 347° |
| 2026-04-21 19:26 | 11.38533 | -59.16613 | 15937 ft | 296 kts | 348° |
| 2026-04-21 19:27 | 11.40551 | -59.16988 | 15936 ft | 296 kts | 347° |
| 2026-04-21 19:27 | 11.42573 | -59.17362 | 15934 ft | 295 kts | 347° |
| 2026-04-21 19:27 | 11.44589 | -59.17736 | 15936 ft | 295 kts | 347° |
| 2026-04-21 19:27 | 11.46604 | -59.18108 | 15936 ft | 295 kts | 347° |
| 2026-04-21 19:28 | 11.48628 | -59.18484 | 15936 ft | 295 kts | 347° |
| 2026-04-21 19:28 | 11.50653 | -59.18858 | 15936 ft | 296 kts | 347° |
| 2026-04-21 19:28 | 11.52689 | -59.19237 | 15939 ft | 296 kts | 347° |
| 2026-04-21 19:28 | 11.54702 | -59.19610 | 15937 ft | 296 kts | 347° |
| 2026-04-21 19:29 | 11.56746 | -59.19989 | 15939 ft | 296 kts | 347° |
| 2026-04-21 19:29 | 11.58761 | -59.20362 | 15940 ft | 296 kts | 347° |
| 2026-04-21 19:29 | 11.60790 | -59.20739 | 15938 ft | 296 kts | 347° |
| 2026-04-21 19:29 | 11.62809 | -59.21113 | 15938 ft | 295 kts | 348° |
| 2026-04-21 19:30 | 11.64845 | -59.21492 | 15939 ft | 295 kts | 348° |
| 2026-04-21 19:30 | 11.66839 | -59.21862 | 15938 ft | 295 kts | 348° |
| 2026-04-21 19:30 | 11.68886 | -59.22241 | 15936 ft | 295 kts | 348° |
| 2026-04-21 19:30 | 11.70889 | -59.22614 | 15938 ft | 295 kts | 348° |
| 2026-04-21 19:31 | 11.72894 | -59.22985 | 15938 ft | 295 kts | 347° |
| 2026-04-21 19:31 | 11.74929 | -59.23363 | 15939 ft | 295 kts | 347° |
| 2026-04-21 19:31 | 11.76951 | -59.23737 | 15940 ft | 295 kts | 347° |
| 2026-04-21 19:31 | 11.78951 | -59.24109 | 15939 ft | 295 kts | 348° |
| 2026-04-21 19:32 | 11.80986 | -59.24488 | 15940 ft | 295 kts | 348° |
| 2026-04-21 19:32 | 11.83006 | -59.24862 | 15940 ft | 295 kts | 348° |
| 2026-04-21 19:32 | 11.85028 | -59.25237 | 15940 ft | 295 kts | 348° |
| 2026-04-21 19:32 | 11.87067 | -59.25617 | 15940 ft | 296 kts | 348° |
| 2026-04-21 19:33 | 11.88407 | -59.25868 | 15938 ft | 296 kts | 348° |
| 2026-04-21 19:33 | 11.91110 | -59.26369 | 15939 ft | 296 kts | 348° |
| 2026-04-21 19:33 | 11.93127 | -59.26744 | 15939 ft | 295 kts | 347° |
| 2026-04-21 19:33 | 11.95148 | -59.27122 | 15936 ft | 295 kts | 348° |
| 2026-04-21 19:34 | 11.97179 | -59.27496 | 15940 ft | 295 kts | 348° |
| 2026-04-21 19:34 | 11.99199 | -59.27880 | 15936 ft | 295 kts | 347° |
| 2026-04-21 19:34 | 12.01210 | -59.28257 | 15943 ft | 295 kts | 347° |
| 2026-04-21 19:34 | 12.03223 | -59.28636 | 15942 ft | 295 kts | 347° |
| 2026-04-21 19:35 | 12.05252 | -59.29019 | 15942 ft | 295 kts | 347° |
| 2026-04-21 19:35 | 12.09304 | -59.29782 | 15938 ft | 295 kts | 348° |
| 2026-04-21 19:35 | 12.11326 | -59.30164 | 15939 ft | 295 kts | 348° |
| 2026-04-21 19:36 | 12.13332 | -59.30542 | 15941 ft | 295 kts | 347° |
| 2026-04-21 19:36 | 12.15365 | -59.30924 | 15940 ft | 295 kts | 347° |
| 2026-04-21 19:36 | 12.17360 | -59.31299 | 15941 ft | 295 kts | 347° |
| 2026-04-21 19:36 | 12.19409 | -59.31685 | 15941 ft | 295 kts | 347° |
| 2026-04-21 19:37 | 12.21413 | -59.32063 | 15942 ft | 295 kts | 347° |
| 2026-04-21 19:37 | 12.23430 | -59.32442 | 15944 ft | 295 kts | 347° |
| 2026-04-21 19:37 | 12.25434 | -59.32820 | 15943 ft | 287 kts | 347° |
| 2026-04-21 19:37 | 12.27334 | -59.33182 | 15942 ft | 270 kts | 347° |
| 2026-04-21 19:38 | 12.29149 | -59.33554 | 15801 ft | 261 kts | 344° |
| 2026-04-21 19:38 | 12.30869 | -59.34081 | 15532 ft | 259 kts | 339° |
| 2026-04-21 19:38 | 12.31995 | -59.34485 | 15357 ft | 258 kts | 338° |
| 2026-04-21 19:38 | 12.34237 | -59.35335 | 15003 ft | 255 kts | 333° |
| 2026-04-21 19:39 | 12.35804 | -59.36129 | 14759 ft | 253 kts | 330° |
| 2026-04-21 19:39 | 12.37336 | -59.37033 | 14510 ft | 249 kts | 320° |
| 2026-04-21 19:39 | 12.38630 | -59.38212 | 14258 ft | 247 kts | 314° |
| 2026-04-21 19:39 | 12.39853 | -59.39430 | 14010 ft | 247 kts | 313° |
| 2026-04-21 19:40 | 12.41095 | -59.40637 | 13758 ft | 248 kts | 315° |
| 2026-04-21 19:40 | 12.42398 | -59.41821 | 13480 ft | 249 kts | 317° |
| 2026-04-21 19:40 | 12.43701 | -59.42964 | 13205 ft | 249 kts | 317° |
| 2026-04-21 19:40 | 12.45005 | -59.44117 | 12929 ft | 249 kts | 317° |
| 2026-04-21 19:41 | 12.46323 | -59.45289 | 12654 ft | 249 kts | 317° |
| 2026-04-21 19:41 | 12.47610 | -59.46431 | 12384 ft | 248 kts | 316° |
| 2026-04-21 19:41 | 12.48927 | -59.47604 | 12116 ft | 248 kts | 316° |
| 2026-04-21 19:41 | 12.50225 | -59.48760 | 11842 ft | 248 kts | 316° |
| 2026-04-21 19:42 | 12.51520 | -59.49914 | 11563 ft | 248 kts | 317° |
| 2026-04-21 19:42 | 12.52974 | -59.50871 | 11274 ft | 247 kts | 332° |
| 2026-04-21 19:42 | 12.54549 | -59.51582 | 10980 ft | 248 kts | 334° |
| 2026-04-21 19:42 | 12.56145 | -59.52233 | 10708 ft | 249 kts | 340° |
| 2026-04-21 19:43 | 12.57820 | -59.52726 | 10430 ft | 249 kts | 342° |
| 2026-04-21 19:43 | 12.59505 | -59.53198 | 10151 ft | 250 kts | 342° |
| 2026-04-21 19:43 | 12.61184 | -59.53522 | 9853 ft | 249 kts | 355° |
| 2026-04-21 19:43 | 12.62923 | -59.53489 | 9480 ft | 249 kts | 359° |
| 2026-04-21 19:44 | 12.64592 | -59.53830 | 9097 ft | 244 kts | 336° |
| 2026-04-21 19:44 | 12.66120 | -59.54573 | 8724 ft | 244 kts | 330° |
| 2026-04-21 19:44 | 12.67650 | -59.55313 | 8355 ft | 245 kts | 339° |
| 2026-04-21 19:44 | 12.69306 | -59.55784 | 8008 ft | 245 kts | 345° |
| 2026-04-21 19:45 | 12.70965 | -59.56145 | 7676 ft | 243 kts | 347° |
| 2026-04-21 19:45 | 12.72608 | -59.56494 | 7345 ft | 241 kts | 347° |
| 2026-04-21 19:45 | 12.74238 | -59.56870 | 7019 ft | 239 kts | 346° |
| 2026-04-21 19:45 | 12.75731 | -59.57239 | 6758 ft | 236 kts | 346° |
| 2026-04-21 19:46 | 12.77339 | -59.57639 | 6477 ft | 234 kts | 346° |
| 2026-04-21 19:46 | 12.78900 | -59.58029 | 6192 ft | 232 kts | 346° |
| 2026-04-21 19:46 | 12.80463 | -59.58422 | 5892 ft | 228 kts | 344° |
| 2026-04-21 19:46 | 12.81910 | -59.59083 | 5590 ft | 226 kts | 332° |
| 2026-04-21 19:47 | 12.83279 | -59.59841 | 5358 ft | 220 kts | 336° |
| 2026-04-21 19:47 | 12.84735 | -59.60127 | 5196 ft | 212 kts | 358° |
| 2026-04-21 19:47 | 12.86216 | -59.60126 | 5024 ft | 210 kts | 2° |
| 2026-04-21 19:47 | 12.87657 | -59.60077 | 4857 ft | 208 kts | 2° |
| 2026-04-21 19:48 | 12.89106 | -59.60053 | 4643 ft | 209 kts | 1° |
| 2026-04-21 19:48 | 12.90562 | -59.60032 | 4390 ft | 211 kts | 1° |
| 2026-04-21 19:48 | 12.91548 | -59.60017 | 4218 ft | 212 kts | 1° |
| 2026-04-21 19:48 | 12.93526 | -59.59987 | 4022 ft | 207 kts | 2° |
| 2026-04-21 19:49 | 12.94881 | -59.59923 | 4134 ft | 194 kts | 4° |
| 2026-04-21 19:49 | 12.95789 | -59.59871 | 3919 ft | 199 kts | 4° |
| 2026-04-21 19:49 | 12.97189 | -59.59780 | 3623 ft | 202 kts | 5° |
| 2026-04-21 19:49 | 12.98568 | -59.59646 | 3332 ft | 196 kts | 8° |
| 2026-04-21 19:50 | 12.99879 | -59.59491 | 3227 ft | 186 kts | 8° |
| 2026-04-21 19:50 | 13.01154 | -59.59319 | 3103 ft | 186 kts | 11° |
| 2026-04-21 19:50 | 13.02441 | -59.59081 | 2867 ft | 186 kts | 15° |
| 2026-04-21 19:50 | 13.03604 | -59.58643 | 2511 ft | 171 kts | 29° |
| 2026-04-21 19:51 | 13.04570 | -59.57952 | 2092 ft | 169 kts | 43° |
| 2026-04-21 19:51 | 13.05314 | -59.57118 | 1808 ft | 145 kts | 55° |
| 2026-04-21 19:51 | 13.05760 | -59.56241 | 1476 ft | 134 kts | 69° |
| 2026-04-21 19:51 | 13.06010 | -59.55335 | 1207 ft | 132 kts | 77° |
| 2026-04-21 19:52 | 13.06183 | -59.54415 | 906 ft | 131 kts | 78° |
| 2026-04-21 19:52 | 13.06400 | -59.53548 | 724 ft | 123 kts | 76° |
| 2026-04-21 19:52 | 13.06603 | -59.52707 | 555 ft | 120 kts | 77° |
| 2026-04-21 19:52 | 13.06805 | -59.51906 | 423 ft | 113 kts | 76° |
| 2026-04-21 19:53 | 13.06994 | -59.51130 | 291 ft | 111 kts | 76° |
| 2026-04-21 19:53 | 13.07177 | -59.50373 | 181 ft | 108 kts | 77° |
| 2026-04-21 19:53 | 13.07330 | -59.49743 | 172 ft | 81 kts | 76° |
| 2026-04-21 19:53 | 13.07447 | -59.49279 | 171 ft | 55 kts | 76° |
| 2026-04-21 19:54 | 13.07512 | -59.49024 | 171 ft | 24 kts | 75° |
| 2026-04-21 19:54 | 13.07602 | -59.48987 | 172 ft | 15 kts | 344° |
| 2026-04-21 19:54 | 13.07689 | -59.48972 | 173 ft | 13 kts | 68° |
| 2026-04-21 19:54 | 13.07712 | -59.48876 | 172 ft | 16 kts | 75° |
| 2026-04-21 19:55 | 13.07754 | -59.48793 | 172 ft | 11 kts | 14° |
| 2026-04-21 19:55 | 13.07822 | -59.48806 | 173 ft | 9 kts | 347° |
| 2026-04-21 19:55 | 13.07858 | -59.48814 | 173 ft | 0 kts | 345° |